sensor_id;sensor_type;location;lat;lon;timestamp;pressure;altitude;pressure_sealevel;temperature;humidity
79538;BME280;68989;52.032;5.152;2023-06-24T00:01:35;102539.54;;;28.09;39.61
79538;BME280;68989;52.032;5.152;2023-06-24T00:04:03;102542.34;;;28.07;39.61
79538;BME280;68989;52.032;5.152;2023-06-24T00:06:30;102544.96;;;28.05;39.61
79538;BME280;68989;52.032;5.152;2023-06-24T00:08:57;102548.32;;;28.03;39.70
79538;BME280;68989;52.032;5.152;2023-06-24T00:11:24;102547.64;;;28.00;39.78
79538;BME280;68989;52.032;5.152;2023-06-24T00:13:51;102549.23;;;27.99;39.87
79538;BME280;68989;52.032;5.152;2023-06-24T00:16:18;102552.72;;;27.97;39.89
79538;BME280;68989;52.032;5.152;2023-06-24T00:18:45;102552.43;;;27.94;39.95
79538;BME280;68989;52.032;5.152;2023-06-24T00:21:11;102552.34;;;27.92;39.97
79538;BME280;68989;52.032;5.152;2023-06-24T00:23:38;102555.92;;;27.91;40.02
79538;BME280;68989;52.032;5.152;2023-06-24T00:26:06;102554.20;;;27.90;40.05
79538;BME280;68989;52.032;5.152;2023-06-24T00:28:32;102546.87;;;27.86;40.10
79538;BME280;68989;52.032;5.152;2023-06-24T00:30:59;102548.62;;;27.87;40.00
79538;BME280;68989;52.032;5.152;2023-06-24T00:33:26;102549.71;;;27.86;39.91
79538;BME280;68989;52.032;5.152;2023-06-24T00:35:54;102549.64;;;27.85;40.00
79538;BME280;68989;52.032;5.152;2023-06-24T00:38:21;102547.76;;;27.84;40.07
79538;BME280;68989;52.032;5.152;2023-06-24T00:40:48;102550.23;;;27.83;40.15
79538;BME280;68989;52.032;5.152;2023-06-24T00:43:14;102553.27;;;27.81;40.13
79538;BME280;68989;52.032;5.152;2023-06-24T00:45:41;102552.23;;;27.81;40.13
79538;BME280;68989;52.032;5.152;2023-06-24T00:48:09;102556.79;;;27.80;40.17
79538;BME280;68989;52.032;5.152;2023-06-24T00:50:36;102554.04;;;27.79;40.17
79538;BME280;68989;52.032;5.152;2023-06-24T00:53:03;102554.53;;;27.78;40.23
79538;BME280;68989;52.032;5.152;2023-06-24T00:55:30;102558.73;;;27.76;40.19
79538;BME280;68989;52.032;5.152;2023-06-24T00:57:57;102554.39;;;27.74;40.28
79538;BME280;68989;52.032;5.152;2023-06-24T01:02:09;102552.74;;;27.69;40.29
79538;BME280;68989;52.032;5.152;2023-06-24T01:04:37;102550.40;;;27.66;40.35
79538;BME280;68989;52.032;5.152;2023-06-24T01:07:05;102551.07;;;27.63;40.42
79538;BME280;68989;52.032;5.152;2023-06-24T01:09:32;102548.93;;;27.61;40.46
79538;BME280;68989;52.032;5.152;2023-06-24T01:12:00;102545.75;;;27.59;40.41
79538;BME280;68989;52.032;5.152;2023-06-24T01:14:27;102544.62;;;27.57;40.41
79538;BME280;68989;52.032;5.152;2023-06-24T01:16:58;102541.93;;;27.54;40.46
79538;BME280;68989;52.032;5.152;2023-06-24T01:19:46;102539.98;;;27.51;40.56
79538;BME280;68989;52.032;5.152;2023-06-24T01:22:29;102540.53;;;27.48;40.58
79538;BME280;68989;52.032;5.152;2023-06-24T01:25:12;102540.07;;;27.42;40.62
79538;BME280;68989;52.032;5.152;2023-06-24T01:27:57;102539.52;;;27.38;40.60
79538;BME280;68989;52.032;5.152;2023-06-24T01:30:47;102532.76;;;27.35;40.68
79538;BME280;68989;52.032;5.152;2023-06-24T01:33:23;102528.30;;;27.32;40.72
79538;BME280;68989;52.032;5.152;2023-06-24T01:35:53;102530.01;;;27.29;40.69
79538;BME280;68989;52.032;5.152;2023-06-24T01:38:27;102528.64;;;27.26;40.66
79538;BME280;68989;52.032;5.152;2023-06-24T01:40:56;102529.88;;;27.22;40.68
79538;BME280;68989;52.032;5.152;2023-06-24T01:43:24;102529.14;;;27.20;40.74
79538;BME280;68989;52.032;5.152;2023-06-24T01:45:54;102528.27;;;27.16;40.81
79538;BME280;68989;52.032;5.152;2023-06-24T01:48:25;102528.27;;;27.13;40.78
79538;BME280;68989;52.032;5.152;2023-06-24T01:50:58;102527.97;;;27.10;40.83
79538;BME280;68989;52.032;5.152;2023-06-24T01:53:27;102528.33;;;27.06;40.94
79538;BME280;68989;52.032;5.152;2023-06-24T01:55:58;102527.31;;;27.01;40.96
79538;BME280;68989;52.032;5.152;2023-06-24T01:58:25;102526.09;;;26.98;41.03
79538;BME280;68989;52.032;5.152;2023-06-24T02:00:52;102523.99;;;26.94;41.07
79538;BME280;68989;52.032;5.152;2023-06-24T02:03:20;102521.41;;;26.91;41.06
79538;BME280;68989;52.032;5.152;2023-06-24T02:05:48;102514.03;;;26.88;41.14
79538;BME280;68989;52.032;5.152;2023-06-24T02:08:18;102515.51;;;26.84;41.20
79538;BME280;68989;52.032;5.152;2023-06-24T02:10:48;102522.25;;;26.80;41.23
79538;BME280;68989;52.032;5.152;2023-06-24T02:13:16;102522.67;;;26.77;41.20
79538;BME280;68989;52.032;5.152;2023-06-24T02:15:46;102523.06;;;26.74;41.21
79538;BME280;68989;52.032;5.152;2023-06-24T02:18:15;102519.96;;;26.70;41.28
79538;BME280;68989;52.032;5.152;2023-06-24T02:20:44;102517.07;;;26.67;41.28
79538;BME280;68989;52.032;5.152;2023-06-24T02:23:13;102516.97;;;26.63;41.32
79538;BME280;68989;52.032;5.152;2023-06-24T02:25:42;102514.64;;;26.58;41.31
79538;BME280;68989;52.032;5.152;2023-06-24T02:28:10;102515.36;;;26.54;41.39
79538;BME280;68989;52.032;5.152;2023-06-24T02:30:38;102513.74;;;26.53;41.33
79538;BME280;68989;52.032;5.152;2023-06-24T02:33:05;102512.12;;;26.49;41.37
79538;BME280;68989;52.032;5.152;2023-06-24T02:35:32;102508.95;;;26.49;41.31
79538;BME280;68989;52.032;5.152;2023-06-24T02:37:59;102505.37;;;26.46;41.28
79538;BME280;68989;52.032;5.152;2023-06-24T02:40:26;102505.12;;;26.43;41.33
79538;BME280;68989;52.032;5.152;2023-06-24T02:42:54;102505.18;;;26.41;41.33
79538;BME280;68989;52.032;5.152;2023-06-24T02:45:21;102505.93;;;26.38;41.34
79538;BME280;68989;52.032;5.152;2023-06-24T02:47:49;102503.17;;;26.37;41.28
79538;BME280;68989;52.032;5.152;2023-06-24T02:50:17;102506.57;;;26.34;41.30
79538;BME280;68989;52.032;5.152;2023-06-24T02:52:45;102510.91;;;26.32;41.31
79538;BME280;68989;52.032;5.152;2023-06-24T02:55:13;102506.99;;;26.27;41.37
79538;BME280;68989;52.032;5.152;2023-06-24T02:57:40;102506.85;;;26.24;41.32
79538;BME280;68989;52.032;5.152;2023-06-24T03:00:09;102505.73;;;26.21;41.34
79538;BME280;68989;52.032;5.152;2023-06-24T03:02:36;102502.66;;;26.19;41.31
79538;BME280;68989;52.032;5.152;2023-06-24T03:05:04;102504.88;;;26.16;41.33
79538;BME280;68989;52.032;5.152;2023-06-24T03:07:33;102506.70;;;26.12;41.33
79538;BME280;68989;52.032;5.152;2023-06-24T03:10:01;102504.15;;;26.09;41.33
79538;BME280;68989;52.032;5.152;2023-06-24T03:12:28;102504.51;;;26.05;41.33
79538;BME280;68989;52.032;5.152;2023-06-24T03:14:55;102505.64;;;26.01;41.40
79538;BME280;68989;52.032;5.152;2023-06-24T03:17:22;102507.83;;;25.96;41.42
79538;BME280;68989;52.032;5.152;2023-06-24T03:19:49;102507.57;;;25.93;41.42
79538;BME280;68989;52.032;5.152;2023-06-24T03:22:17;102506.18;;;25.91;41.42
79538;BME280;68989;52.032;5.152;2023-06-24T03:24:43;102506.70;;;25.87;41.43
79538;BME280;68989;52.032;5.152;2023-06-24T03:27:10;102510.36;;;25.84;41.46
79538;BME280;68989;52.032;5.152;2023-06-24T03:29:37;102512.13;;;25.81;41.44
79538;BME280;68989;52.032;5.152;2023-06-24T03:32:04;102511.72;;;25.78;41.45
79538;BME280;68989;52.032;5.152;2023-06-24T03:34:31;102511.87;;;25.76;41.44
79538;BME280;68989;52.032;5.152;2023-06-24T03:36:58;102512.67;;;25.74;41.46
79538;BME280;68989;52.032;5.152;2023-06-24T03:39:25;102513.52;;;25.72;41.47
79538;BME280;68989;52.032;5.152;2023-06-24T03:41:53;102515.58;;;25.69;41.48
79538;BME280;68989;52.032;5.152;2023-06-24T03:44:20;102518.21;;;25.66;41.52
79538;BME280;68989;52.032;5.152;2023-06-24T03:46:46;102517.00;;;25.65;41.49
79538;BME280;68989;52.032;5.152;2023-06-24T03:49:13;102513.46;;;25.62;41.54
79538;BME280;68989;52.032;5.152;2023-06-24T03:51:40;102514.50;;;25.60;41.61
79538;BME280;68989;52.032;5.152;2023-06-24T03:54:07;102515.80;;;25.57;41.57
79538;BME280;68989;52.032;5.152;2023-06-24T03:56:34;102514.65;;;25.56;41.58
79538;BME280;68989;52.032;5.152;2023-06-24T03:59:01;102511.78;;;25.53;41.58
79538;BME280;68989;52.032;5.152;2023-06-24T04:01:28;102508.78;;;25.49;41.63
79538;BME280;68989;52.032;5.152;2023-06-24T04:03:54;102509.20;;;25.47;41.64
79538;BME280;68989;52.032;5.152;2023-06-24T04:06:21;102508.05;;;25.46;41.65
79538;BME280;68989;52.032;5.152;2023-06-24T04:08:48;102508.28;;;25.44;41.67
79538;BME280;68989;52.032;5.152;2023-06-24T04:11:15;102508.61;;;25.43;41.72
79538;BME280;68989;52.032;5.152;2023-06-24T04:13:41;102514.67;;;25.42;41.69
79538;BME280;68989;52.032;5.152;2023-06-24T04:16:08;102519.85;;;25.41;41.68
79538;BME280;68989;52.032;5.152;2023-06-24T04:18:35;102524.71;;;25.41;41.68
79538;BME280;68989;52.032;5.152;2023-06-24T04:21:02;102524.02;;;25.41;41.68
79538;BME280;68989;52.032;5.152;2023-06-24T04:23:30;102519.06;;;25.41;41.67
79538;BME280;68989;52.032;5.152;2023-06-24T04:25:56;102521.92;;;25.41;41.70
79538;BME280;68989;52.032;5.152;2023-06-24T04:28:23;102525.26;;;25.43;41.68
79538;BME280;68989;52.032;5.152;2023-06-24T04:30:50;102524.05;;;25.45;41.71
79538;BME280;68989;52.032;5.152;2023-06-24T04:33:18;102525.62;;;25.49;41.75
79538;BME280;68989;52.032;5.152;2023-06-24T04:35:44;102526.80;;;25.52;41.72
79538;BME280;68989;52.032;5.152;2023-06-24T04:38:11;102529.52;;;25.55;41.73
79538;BME280;68989;52.032;5.152;2023-06-24T04:40:38;102531.72;;;25.60;41.68
79538;BME280;68989;52.032;5.152;2023-06-24T04:43:06;102531.44;;;25.68;41.77
79538;BME280;68989;52.032;5.152;2023-06-24T04:45:33;102533.41;;;25.78;42.10
79538;BME280;68989;52.032;5.152;2023-06-24T04:48:00;102534.18;;;25.88;42.02
79538;BME280;68989;52.032;5.152;2023-06-24T04:50:27;102528.27;;;26.01;41.92
79538;BME280;68989;52.032;5.152;2023-06-24T04:52:54;102525.84;;;26.09;41.46
79538;BME280;68989;52.032;5.152;2023-06-24T04:55:21;102526.97;;;26.17;41.42
79538;BME280;68989;52.032;5.152;2023-06-24T04:57:49;102529.09;;;26.25;41.32
79538;BME280;68989;52.032;5.152;2023-06-24T05:00:16;102530.84;;;26.34;41.18
79538;BME280;68989;52.032;5.152;2023-06-24T05:02:43;102533.56;;;26.44;40.88
79538;BME280;68989;52.032;5.152;2023-06-24T05:05:10;102533.42;;;26.55;40.70
79538;BME280;68989;52.032;5.152;2023-06-24T05:07:37;102535.88;;;26.68;40.42
79538;BME280;68989;52.032;5.152;2023-06-24T05:10:04;102540.63;;;26.82;40.32
79538;BME280;68989;52.032;5.152;2023-06-24T05:12:31;102540.56;;;26.93;40.24
79538;BME280;68989;52.032;5.152;2023-06-24T05:14:58;102541.13;;;27.04;39.80
79538;BME280;68989;52.032;5.152;2023-06-24T05:17:24;102540.32;;;27.15;39.69
79538;BME280;68989;52.032;5.152;2023-06-24T05:19:51;102543.91;;;27.25;39.58
79538;BME280;68989;52.032;5.152;2023-06-24T05:22:18;102542.04;;;27.36;39.31
79538;BME280;68989;52.032;5.152;2023-06-24T05:24:45;102542.72;;;27.49;39.21
79538;BME280;68989;52.032;5.152;2023-06-24T05:27:12;102544.25;;;27.62;39.02
79538;BME280;68989;52.032;5.152;2023-06-24T05:29:39;102542.32;;;27.74;38.90
79538;BME280;68989;52.032;5.152;2023-06-24T05:32:07;102542.26;;;27.86;38.77
79538;BME280;68989;52.032;5.152;2023-06-24T05:34:34;102542.50;;;27.97;38.56
79538;BME280;68989;52.032;5.152;2023-06-24T05:37:01;102543.67;;;28.08;38.43
79538;BME280;68989;52.032;5.152;2023-06-24T05:39:29;102547.56;;;28.20;38.36
79538;BME280;68989;52.032;5.152;2023-06-24T05:41:56;102549.53;;;28.33;38.08
79538;BME280;68989;52.032;5.152;2023-06-24T05:44:23;102551.76;;;28.46;37.97
79538;BME280;68989;52.032;5.152;2023-06-24T05:46:50;102553.59;;;28.59;37.88
79538;BME280;68989;52.032;5.152;2023-06-24T05:49:17;102553.82;;;28.73;37.67
79538;BME280;68989;52.032;5.152;2023-06-24T05:51:44;102554.30;;;28.88;37.50
79538;BME280;68989;52.032;5.152;2023-06-24T05:54:11;102555.77;;;29.03;37.27
79538;BME280;68989;52.032;5.152;2023-06-24T05:56:39;102554.88;;;29.18;37.09
79538;BME280;68989;52.032;5.152;2023-06-24T05:59:07;102554.11;;;29.33;36.98
79538;BME280;68989;52.032;5.152;2023-06-24T06:01:34;102554.96;;;29.45;36.72
79538;BME280;68989;52.032;5.152;2023-06-24T06:04:02;102554.31;;;29.58;36.56
79538;BME280;68989;52.032;5.152;2023-06-24T06:06:29;102557.12;;;29.71;36.47
79538;BME280;68989;52.032;5.152;2023-06-24T06:08:57;102552.69;;;29.84;36.27
79538;BME280;68989;52.032;5.152;2023-06-24T06:11:24;102543.45;;;29.97;36.19
79538;BME280;68989;52.032;5.152;2023-06-24T06:13:51;102547.10;;;30.15;35.91
79538;BME280;68989;52.032;5.152;2023-06-24T06:16:19;102544.90;;;30.27;35.75
79538;BME280;68989;52.032;5.152;2023-06-24T06:18:45;102546.67;;;30.42;35.54
79538;BME280;68989;52.032;5.152;2023-06-24T06:21:13;102548.15;;;30.58;35.45
79538;BME280;68989;52.032;5.152;2023-06-24T06:23:40;102552.02;;;30.74;35.27
79538;BME280;68989;52.032;5.152;2023-06-24T06:26:07;102555.24;;;30.91;35.00
79538;BME280;68989;52.032;5.152;2023-06-24T06:28:35;102560.01;;;31.08;34.76
79538;BME280;68989;52.032;5.152;2023-06-24T06:31:03;102559.85;;;31.24;34.62
79538;BME280;68989;52.032;5.152;2023-06-24T06:33:30;102559.18;;;31.41;34.47
79538;BME280;68989;52.032;5.152;2023-06-24T06:35:56;102555.17;;;31.58;34.21
79538;BME280;68989;52.032;5.152;2023-06-24T06:38:27;102554.83;;;31.74;34.27
79538;BME280;68989;52.032;5.152;2023-06-24T06:40:55;102554.67;;;31.84;34.41
79538;BME280;68989;52.032;5.152;2023-06-24T06:43:22;102556.76;;;32.00;34.15
79538;BME280;68989;52.032;5.152;2023-06-24T06:45:56;102555.60;;;32.18;34.00
79538;BME280;68989;52.032;5.152;2023-06-24T06:51:26;102556.77;;;32.56;33.24
79538;BME280;68989;52.032;5.152;2023-06-24T06:53:53;102557.48;;;32.73;33.13
79538;BME280;68989;52.032;5.152;2023-06-24T06:56:23;102558.04;;;32.89;33.24
79538;BME280;68989;52.032;5.152;2023-06-24T06:58:50;102556.46;;;33.06;32.90
79538;BME280;68989;52.032;5.152;2023-06-24T07:01:18;102553.00;;;33.21;32.95
79538;BME280;68989;52.032;5.152;2023-06-24T07:03:46;102552.91;;;33.40;32.49
79538;BME280;68989;52.032;5.152;2023-06-24T07:06:13;102549.52;;;33.53;32.64
79538;BME280;68989;52.032;5.152;2023-06-24T07:08:41;102550.34;;;33.66;32.26
79538;BME280;68989;52.032;5.152;2023-06-24T07:11:08;102551.03;;;33.81;32.03
79538;BME280;68989;52.032;5.152;2023-06-24T07:13:36;102552.77;;;33.95;31.78
79538;BME280;68989;52.032;5.152;2023-06-24T07:16:04;102554.91;;;34.10;31.60
79538;BME280;68989;52.032;5.152;2023-06-24T07:18:31;102553.08;;;34.26;31.44
79538;BME280;68989;52.032;5.152;2023-06-24T07:21:00;102550.86;;;34.44;31.32
79538;BME280;68989;52.032;5.152;2023-06-24T07:23:27;102550.85;;;34.61;31.05
79538;BME280;68989;52.032;5.152;2023-06-24T07:25:54;102552.08;;;34.78;30.83
79538;BME280;68989;52.032;5.152;2023-06-24T07:28:21;102552.82;;;34.93;30.41
79538;BME280;68989;52.032;5.152;2023-06-24T07:30:48;102558.22;;;35.09;30.47
79538;BME280;68989;52.032;5.152;2023-06-24T07:33:15;102555.35;;;35.24;30.24
79538;BME280;68989;52.032;5.152;2023-06-24T07:35:42;102558.44;;;35.39;30.10
79538;BME280;68989;52.032;5.152;2023-06-24T07:38:10;102554.61;;;35.54;29.93
79538;BME280;68989;52.032;5.152;2023-06-24T07:40:36;102555.21;;;35.66;29.77
79538;BME280;68989;52.032;5.152;2023-06-24T07:43:03;102555.48;;;35.77;29.68
79538;BME280;68989;52.032;5.152;2023-06-24T07:45:30;102556.43;;;35.87;29.47
79538;BME280;68989;52.032;5.152;2023-06-24T07:47:57;102551.99;;;35.96;29.40
79538;BME280;68989;52.032;5.152;2023-06-24T07:50:24;102551.76;;;36.06;29.37
79538;BME280;68989;52.032;5.152;2023-06-24T07:52:52;102553.14;;;36.16;29.25
79538;BME280;68989;52.032;5.152;2023-06-24T07:55:18;102552.94;;;36.26;29.10
79538;BME280;68989;52.032;5.152;2023-06-24T07:57:45;102550.79;;;36.37;29.02
79538;BME280;68989;52.032;5.152;2023-06-24T08:00:14;102545.09;;;36.49;28.92
79538;BME280;68989;52.032;5.152;2023-06-24T08:03:41;102544.28;;;36.65;28.64
79538;BME280;68989;52.032;5.152;2023-06-24T08:06:09;102547.89;;;36.75;28.27
79538;BME280;68989;52.032;5.152;2023-06-24T08:08:36;102543.97;;;36.78;27.47
79538;BME280;68989;52.032;5.152;2023-06-24T08:11:04;102541.21;;;36.77;27.54
79538;BME280;68989;52.032;5.152;2023-06-24T08:13:31;102544.18;;;36.86;27.72
79538;BME280;68989;52.032;5.152;2023-06-24T08:15:59;102545.81;;;37.01;27.73
79538;BME280;68989;52.032;5.152;2023-06-24T08:18:26;102541.96;;;37.18;27.63
79538;BME280;68989;52.032;5.152;2023-06-24T08:20:53;102543.56;;;37.36;27.52
79538;BME280;68989;52.032;5.152;2023-06-24T08:23:20;102537.77;;;37.53;27.32
79538;BME280;68989;52.032;5.152;2023-06-24T08:25:47;102539.06;;;37.71;27.18
79538;BME280;68989;52.032;5.152;2023-06-24T08:28:14;102536.12;;;37.87;27.28
79538;BME280;68989;52.032;5.152;2023-06-24T08:30:41;102535.12;;;38.05;27.06
79538;BME280;68989;52.032;5.152;2023-06-24T08:33:08;102536.22;;;38.23;26.97
79538;BME280;68989;52.032;5.152;2023-06-24T08:35:35;102534.47;;;38.39;26.59
79538;BME280;68989;52.032;5.152;2023-06-24T08:38:02;102536.60;;;38.53;26.45
79538;BME280;68989;52.032;5.152;2023-06-24T08:40:30;102540.55;;;38.69;26.39
79538;BME280;68989;52.032;5.152;2023-06-24T08:42:57;102535.91;;;38.83;26.18
79538;BME280;68989;52.032;5.152;2023-06-24T08:45:25;102536.40;;;38.96;26.24
79538;BME280;68989;52.032;5.152;2023-06-24T08:47:53;102532.85;;;39.07;26.11
79538;BME280;68989;52.032;5.152;2023-06-24T08:50:23;102532.26;;;39.13;26.03
79538;BME280;68989;52.032;5.152;2023-06-24T08:52:54;102533.48;;;39.23;25.89
79538;BME280;68989;52.032;5.152;2023-06-24T08:55:23;102533.50;;;39.36;25.37
79538;BME280;68989;52.032;5.152;2023-06-24T08:57:50;102533.86;;;39.49;25.23
79538;BME280;68989;52.032;5.152;2023-06-24T09:00:19;102531.24;;;39.59;25.31
79538;BME280;68989;52.032;5.152;2023-06-24T09:02:45;102535.46;;;39.70;24.91
79538;BME280;68989;52.032;5.152;2023-06-24T09:05:13;102531.41;;;39.86;25.27
79538;BME280;68989;52.032;5.152;2023-06-24T09:07:40;102532.57;;;40.03;24.67
79538;BME280;68989;52.032;5.152;2023-06-24T09:10:09;102530.82;;;40.17;24.48
79538;BME280;68989;52.032;5.152;2023-06-24T09:12:36;102527.06;;;40.30;24.74
79538;BME280;68989;52.032;5.152;2023-06-24T09:15:04;102527.05;;;40.43;24.26
79538;BME280;68989;52.032;5.152;2023-06-24T09:17:31;102524.44;;;40.56;24.32
79538;BME280;68989;52.032;5.152;2023-06-24T09:20:04;102523.03;;;40.69;24.33
79538;BME280;68989;52.032;5.152;2023-06-24T09:22:31;102521.92;;;40.82;23.65
79538;BME280;68989;52.032;5.152;2023-06-24T09:25:00;102521.24;;;40.93;23.88
79538;BME280;68989;52.032;5.152;2023-06-24T09:27:31;102520.48;;;41.07;24.06
79538;BME280;68989;52.032;5.152;2023-06-24T09:29:58;102517.90;;;41.18;23.57
79538;BME280;68989;52.032;5.152;2023-06-24T09:32:29;102513.49;;;41.29;23.45
79538;BME280;68989;52.032;5.152;2023-06-24T09:34:56;102512.01;;;41.42;23.45
79538;BME280;68989;52.032;5.152;2023-06-24T09:37:25;102509.14;;;41.56;23.27
79538;BME280;68989;52.032;5.152;2023-06-24T09:39:52;102511.70;;;41.73;23.80
79538;BME280;68989;52.032;5.152;2023-06-24T09:42:21;102508.50;;;41.85;23.19
79538;BME280;68989;52.032;5.152;2023-06-24T09:44:53;102504.81;;;41.96;23.13
79538;BME280;68989;52.032;5.152;2023-06-24T09:47:19;102505.21;;;42.07;23.08
79538;BME280;68989;52.032;5.152;2023-06-24T09:49:47;102507.54;;;42.19;23.08
79538;BME280;68989;52.032;5.152;2023-06-24T09:52:14;102507.81;;;42.30;23.00
79538;BME280;68989;52.032;5.152;2023-06-24T09:54:42;102502.69;;;42.41;22.80
79538;BME280;68989;52.032;5.152;2023-06-24T09:57:10;102501.34;;;42.52;22.78
79538;BME280;68989;52.032;5.152;2023-06-24T09:59:37;102495.73;;;42.64;22.60
79538;BME280;68989;52.032;5.152;2023-06-24T10:02:08;102496.77;;;42.73;22.03
79538;BME280;68989;52.032;5.152;2023-06-24T10:04:39;102498.92;;;42.82;22.09
79538;BME280;68989;52.032;5.152;2023-06-24T10:07:07;102497.74;;;42.90;22.10
79538;BME280;68989;52.032;5.152;2023-06-24T10:09:34;102499.09;;;43.02;22.06
79538;BME280;68989;52.032;5.152;2023-06-24T10:12:02;102492.53;;;43.10;21.93
79538;BME280;68989;52.032;5.152;2023-06-24T10:14:30;102492.52;;;43.19;22.30
79538;BME280;68989;52.032;5.152;2023-06-24T10:17:02;102495.84;;;43.28;21.64
79538;BME280;68989;52.032;5.152;2023-06-24T10:19:29;102499.01;;;43.37;21.81
79538;BME280;68989;52.032;5.152;2023-06-24T10:21:58;102497.71;;;43.46;21.34
79538;BME280;68989;52.032;5.152;2023-06-24T10:24:28;102493.02;;;43.57;21.34
79538;BME280;68989;52.032;5.152;2023-06-24T10:27:00;102491.05;;;43.68;21.10
79538;BME280;68989;52.032;5.152;2023-06-24T10:29:31;102491.16;;;43.76;21.33
79538;BME280;68989;52.032;5.152;2023-06-24T10:32:03;102490.26;;;43.87;20.89
79538;BME280;68989;52.032;5.152;2023-06-24T10:34:34;102484.32;;;43.97;20.81
79538;BME280;68989;52.032;5.152;2023-06-24T10:37:10;102484.27;;;44.09;20.94
79538;BME280;68989;52.032;5.152;2023-06-24T10:39:45;102481.08;;;44.19;20.44
79538;BME280;68989;52.032;5.152;2023-06-24T10:42:44;102478.53;;;44.26;20.62
79538;BME280;68989;52.032;5.152;2023-06-24T10:45:18;102474.98;;;44.39;20.15
79538;BME280;68989;52.032;5.152;2023-06-24T10:47:47;102477.52;;;44.48;20.26
79538;BME280;68989;52.032;5.152;2023-06-24T10:50:16;102476.41;;;44.57;20.12
79538;BME280;68989;52.032;5.152;2023-06-24T10:52:44;102466.81;;;44.56;19.34
79538;BME280;68989;52.032;5.152;2023-06-24T10:55:13;102471.62;;;44.52;20.39
79538;BME280;68989;52.032;5.152;2023-06-24T10:57:41;102469.56;;;44.57;20.42
79538;BME280;68989;52.032;5.152;2023-06-24T11:00:10;102466.96;;;44.67;20.45
79538;BME280;68989;52.032;5.152;2023-06-24T11:02:38;102463.04;;;44.77;20.19
79538;BME280;68989;52.032;5.152;2023-06-24T11:05:06;102464.80;;;44.86;20.01
79538;BME280;68989;52.032;5.152;2023-06-24T11:07:34;102462.69;;;44.94;20.36
79538;BME280;68989;52.032;5.152;2023-06-24T11:10:05;102456.93;;;45.08;20.23
79538;BME280;68989;52.032;5.152;2023-06-24T11:12:33;102458.20;;;45.18;19.44
79538;BME280;68989;52.032;5.152;2023-06-24T11:15:02;102453.28;;;45.25;19.87
79538;BME280;68989;52.032;5.152;2023-06-24T11:17:30;102451.66;;;45.35;20.17
79538;BME280;68989;52.032;5.152;2023-06-24T11:19:58;102449.35;;;45.49;19.94
79538;BME280;68989;52.032;5.152;2023-06-24T11:22:26;102447.15;;;45.59;19.83
79538;BME280;68989;52.032;5.152;2023-06-24T11:24:54;102446.72;;;45.71;19.72
79538;BME280;68989;52.032;5.152;2023-06-24T11:27:26;102445.29;;;45.83;19.55
79538;BME280;68989;52.032;5.152;2023-06-24T11:29:54;102445.96;;;45.95;19.33
79538;BME280;68989;52.032;5.152;2023-06-24T11:32:21;102443.84;;;46.07;19.17
79538;BME280;68989;52.032;5.152;2023-06-24T11:34:49;102441.38;;;46.15;18.89
79538;BME280;68989;52.032;5.152;2023-06-24T11:37:18;102437.71;;;46.16;18.06
79538;BME280;68989;52.032;5.152;2023-06-24T11:40:00;102436.85;;;46.15;18.71
79538;BME280;68989;52.032;5.152;2023-06-24T11:42:28;102436.41;;;46.11;18.88
79538;BME280;68989;52.032;5.152;2023-06-24T11:44:59;102435.46;;;46.17;19.14
79538;BME280;68989;52.032;5.152;2023-06-24T11:47:31;102435.70;;;46.29;19.04
79538;BME280;68989;52.032;5.152;2023-06-24T11:49:58;102433.49;;;46.38;18.84
79538;BME280;68989;52.032;5.152;2023-06-24T11:52:32;102430.61;;;46.50;18.61
79538;BME280;68989;52.032;5.152;2023-06-24T11:54:59;102429.49;;;46.59;18.43
79538;BME280;68989;52.032;5.152;2023-06-24T11:57:47;102431.62;;;46.66;18.03
79538;BME280;68989;52.032;5.152;2023-06-24T12:00:14;102425.62;;;46.75;18.14
79538;BME280;68989;52.032;5.152;2023-06-24T12:02:41;102424.97;;;46.83;17.63
79538;BME280;68989;52.032;5.152;2023-06-24T12:05:08;102417.06;;;46.90;17.67
79538;BME280;68989;52.032;5.152;2023-06-24T12:07:35;102413.81;;;46.91;17.47
79538;BME280;68989;52.032;5.152;2023-06-24T12:10:02;102411.93;;;46.89;17.44
79538;BME280;68989;52.032;5.152;2023-06-24T12:12:29;102412.09;;;46.88;17.80
79538;BME280;68989;52.032;5.152;2023-06-24T12:14:56;102409.67;;;46.87;17.99
79538;BME280;68989;52.032;5.152;2023-06-24T12:17:24;102409.45;;;46.89;18.16
79538;BME280;68989;52.032;5.152;2023-06-24T12:19:50;102409.74;;;46.93;17.94
79538;BME280;68989;52.032;5.152;2023-06-24T12:22:17;102406.93;;;47.01;17.93
79538;BME280;68989;52.032;5.152;2023-06-24T12:24:44;102411.25;;;47.10;17.65
79538;BME280;68989;52.032;5.152;2023-06-24T12:27:10;102402.71;;;47.18;17.91
79538;BME280;68989;52.032;5.152;2023-06-24T12:29:37;102404.09;;;47.19;17.89
79538;BME280;68989;52.032;5.152;2023-06-24T12:32:05;102404.42;;;47.10;17.39
79538;BME280;68989;52.032;5.152;2023-06-24T12:34:33;102401.49;;;46.86;17.40
79538;BME280;68989;52.032;5.152;2023-06-24T12:36:59;102405.75;;;46.57;17.98
79538;BME280;68989;52.032;5.152;2023-06-24T12:39:27;102401.80;;;46.24;17.98
79538;BME280;68989;52.032;5.152;2023-06-24T12:41:54;102398.41;;;45.95;18.42
79538;BME280;68989;52.032;5.152;2023-06-24T12:44:20;102391.37;;;45.81;17.66
79538;BME280;68989;52.032;5.152;2023-06-24T12:46:47;102395.72;;;45.77;18.28
79538;BME280;68989;52.032;5.152;2023-06-24T12:49:15;102393.06;;;45.84;18.68
79538;BME280;68989;52.032;5.152;2023-06-24T12:51:43;102387.07;;;45.96;18.62
79538;BME280;68989;52.032;5.152;2023-06-24T12:54:11;102389.29;;;46.15;17.87
79538;BME280;68989;52.032;5.152;2023-06-24T12:56:38;102389.73;;;46.25;17.36
79538;BME280;68989;52.032;5.152;2023-06-24T12:59:04;102392.50;;;46.22;18.19
79538;BME280;68989;52.032;5.152;2023-06-24T13:01:32;102389.14;;;46.06;17.74